sensor_id;sensor_type;location;lat;lon;timestamp;P1;durP1;ratioP1;P2;durP2;ratioP2
62535;SDS011;63050;47.514;18.920;2022-11-20T00:02:05;16.30;;;10.80;;
62535;SDS011;63050;47.514;18.920;2022-11-20T00:07:06;19.10;;;11.20;;
62535;SDS011;63050;47.514;18.920;2022-11-20T00:12:07;19.30;;;10.80;;
62535;SDS011;63050;47.514;18.920;2022-11-20T00:17:08;17.90;;;10.20;;
62535;SDS011;63050;47.514;18.920;2022-11-20T00:22:08;19.30;;;11.70;;
62535;SDS011;63050;47.514;18.920;2022-11-20T00:27:09;18.40;;;10.10;;
62535;SDS011;63050;47.514;18.920;2022-11-20T00:32:10;20.70;;;11.40;;
62535;SDS011;63050;47.514;18.920;2022-11-20T00:37:11;26.70;;;12.70;;
62535;SDS011;63050;47.514;18.920;2022-11-20T00:42:12;19.50;;;10.50;;
62535;SDS011;63050;47.514;18.920;2022-11-20T00:47:13;17.40;;;9.90;;
62535;SDS011;63050;47.514;18.920;2022-11-20T00:52:13;18.00;;;10.00;;
62535;SDS011;63050;47.514;18.920;2022-11-20T00:57:14;13.10;;;9.10;;
62535;SDS011;63050;47.514;18.920;2022-11-20T01:02:15;16.70;;;9.30;;
62535;SDS011;63050;47.514;18.920;2022-11-20T01:07:16;16.00;;;9.50;;
62535;SDS011;63050;47.514;18.920;2022-11-20T01:12:17;14.20;;;8.70;;
62535;SDS011;63050;47.514;18.920;2022-11-20T01:17:18;17.00;;;10.10;;
62535;SDS011;63050;47.514;18.920;2022-11-20T01:22:19;17.80;;;9.90;;
62535;SDS011;63050;47.514;18.920;2022-11-20T01:27:20;19.70;;;10.10;;
62535;SDS011;63050;47.514;18.920;2022-11-20T01:32:20;21.50;;;11.00;;
62535;SDS011;63050;47.514;18.920;2022-11-20T01:37:21;21.30;;;12.10;;
62535;SDS011;63050;47.514;18.920;2022-11-20T01:42:22;22.80;;;13.70;;
62535;SDS011;63050;47.514;18.920;2022-11-20T01:47:43;23.00;;;13.00;;
62535;SDS011;63050;47.514;18.920;2022-11-20T01:52:49;27.80;;;14.70;;
62535;SDS011;63050;47.514;18.920;2022-11-20T01:57:53;24.70;;;13.70;;
62535;SDS011;63050;47.514;18.920;2022-11-20T02:02:59;22.50;;;13.10;;
62535;SDS011;63050;47.514;18.920;2022-11-20T02:08:02;22.50;;;11.70;;
62535;SDS011;63050;47.514;18.920;2022-11-20T02:13:03;20.40;;;11.70;;
62535;SDS011;63050;47.514;18.920;2022-11-20T02:18:23;22.40;;;11.90;;
62535;SDS011;63050;47.514;18.920;2022-11-20T02:23:30;23.10;;;12.80;;
62535;SDS011;63050;47.514;18.920;2022-11-20T02:28:39;22.00;;;13.30;;
62535;SDS011;63050;47.514;18.920;2022-11-20T02:33:39;21.60;;;12.70;;
62535;SDS011;63050;47.514;18.920;2022-11-20T02:38:41;20.40;;;12.30;;
62535;SDS011;63050;47.514;18.920;2022-11-20T02:43:42;23.10;;;12.30;;
62535;SDS011;63050;47.514;18.920;2022-11-20T02:48:43;20.90;;;11.60;;
62535;SDS011;63050;47.514;18.920;2022-11-20T02:53:44;19.90;;;11.00;;
62535;SDS011;63050;47.514;18.920;2022-11-20T02:58:44;22.20;;;12.40;;
62535;SDS011;63050;47.514;18.920;2022-11-20T03:03:46;20.60;;;11.10;;
62535;SDS011;63050;47.514;18.920;2022-11-20T03:08:48;17.90;;;11.20;;
62535;SDS011;63050;47.514;18.920;2022-11-20T03:13:49;18.30;;;10.60;;
62535;SDS011;63050;47.514;18.920;2022-11-20T03:18:51;19.80;;;11.60;;
62535;SDS011;63050;47.514;18.920;2022-11-20T03:23:53;19.70;;;11.40;;
62535;SDS011;63050;47.514;18.920;2022-11-20T03:28:58;20.50;;;11.90;;
62535;SDS011;63050;47.514;18.920;2022-11-20T03:34:00;19.40;;;11.00;;
62535;SDS011;63050;47.514;18.920;2022-11-20T03:39:01;19.10;;;11.60;;
62535;SDS011;63050;47.514;18.920;2022-11-20T03:44:03;22.40;;;13.30;;
62535;SDS011;63050;47.514;18.920;2022-11-20T03:49:06;21.10;;;11.90;;
62535;SDS011;63050;47.514;18.920;2022-11-20T03:54:07;18.20;;;10.10;;
62535;SDS011;63050;47.514;18.920;2022-11-20T03:59:09;23.10;;;12.80;;
62535;SDS011;63050;47.514;18.920;2022-11-20T04:04:10;22.30;;;12.60;;
62535;SDS011;63050;47.514;18.920;2022-11-20T04:09:11;21.10;;;12.10;;
62535;SDS011;63050;47.514;18.920;2022-11-20T04:14:14;21.10;;;11.90;;
62535;SDS011;63050;47.514;18.920;2022-11-20T04:19:15;22.10;;;13.50;;
62535;SDS011;63050;47.514;18.920;2022-11-20T04:24:16;18.40;;;11.50;;
62535;SDS011;63050;47.514;18.920;2022-11-20T04:29:17;20.80;;;13.00;;
62535;SDS011;63050;47.514;18.920;2022-11-20T04:34:18;23.30;;;12.60;;
62535;SDS011;63050;47.514;18.920;2022-11-20T04:39:18;20.60;;;11.50;;
62535;SDS011;63050;47.514;18.920;2022-11-20T04:44:19;19.50;;;11.90;;
62535;SDS011;63050;47.514;18.920;2022-11-20T04:49:20;21.00;;;11.80;;
62535;SDS011;63050;47.514;18.920;2022-11-20T04:54:21;18.10;;;12.20;;
62535;SDS011;63050;47.514;18.920;2022-11-20T04:59:22;17.70;;;12.20;;
62535;SDS011;63050;47.514;18.920;2022-11-20T05:04:23;19.70;;;12.00;;
62535;SDS011;63050;47.514;18.920;2022-11-20T05:09:24;18.60;;;11.60;;
62535;SDS011;63050;47.514;18.920;2022-11-20T05:14:24;20.60;;;11.90;;
62535;SDS011;63050;47.514;18.920;2022-11-20T05:19:25;23.40;;;12.50;;
62535;SDS011;63050;47.514;18.920;2022-11-20T05:24:26;18.20;;;12.10;;
62535;SDS011;63050;47.514;18.920;2022-11-20T05:29:27;20.90;;;12.90;;
62535;SDS011;63050;47.514;18.920;2022-11-20T05:34:28;19.50;;;12.50;;
62535;SDS011;63050;47.514;18.920;2022-11-20T05:39:28;21.90;;;13.30;;
62535;SDS011;63050;47.514;18.920;2022-11-20T05:44:29;20.70;;;12.80;;
62535;SDS011;63050;47.514;18.920;2022-11-20T05:49:30;21.70;;;12.90;;
62535;SDS011;63050;47.514;18.920;2022-11-20T05:54:31;22.60;;;13.60;;
62535;SDS011;63050;47.514;18.920;2022-11-20T05:59:32;17.90;;;11.50;;
62535;SDS011;63050;47.514;18.920;2022-11-20T06:04:33;19.20;;;10.10;;
62535;SDS011;63050;47.514;18.920;2022-11-20T06:09:33;16.80;;;10.50;;
62535;SDS011;63050;47.514;18.920;2022-11-20T06:14:34;16.00;;;10.70;;
62535;SDS011;63050;47.514;18.920;2022-11-20T06:19:35;17.30;;;11.70;;
62535;SDS011;63050;47.514;18.920;2022-11-20T06:24:36;20.40;;;11.50;;
62535;SDS011;63050;47.514;18.920;2022-11-20T06:29:37;13.90;;;9.60;;
62535;SDS011;63050;47.514;18.920;2022-11-20T06:34:37;16.70;;;10.20;;
62535;SDS011;63050;47.514;18.920;2022-11-20T06:39:38;13.90;;;8.80;;
62535;SDS011;63050;47.514;18.920;2022-11-20T06:44:39;15.80;;;9.70;;
62535;SDS011;63050;47.514;18.920;2022-11-20T06:49:40;15.40;;;10.30;;
62535;SDS011;63050;47.514;18.920;2022-11-20T06:54:41;18.30;;;10.60;;
62535;SDS011;63050;47.514;18.920;2022-11-20T06:59:42;20.60;;;13.40;;
62535;SDS011;63050;47.514;18.920;2022-11-20T07:04:43;21.20;;;12.00;;
62535;SDS011;63050;47.514;18.920;2022-11-20T07:09:43;16.80;;;10.10;;
62535;SDS011;63050;47.514;18.920;2022-11-20T07:14:44;14.70;;;9.20;;
62535;SDS011;63050;47.514;18.920;2022-11-20T07:19:45;15.80;;;9.50;;
62535;SDS011;63050;47.514;18.920;2022-11-20T07:24:46;15.50;;;9.50;;
62535;SDS011;63050;47.514;18.920;2022-11-20T07:29:48;13.60;;;9.60;;
62535;SDS011;63050;47.514;18.920;2022-11-20T07:34:49;14.10;;;9.50;;
62535;SDS011;63050;47.514;18.920;2022-11-20T07:39:50;15.30;;;10.00;;
62535;SDS011;63050;47.514;18.920;2022-11-20T07:44:51;14.90;;;9.90;;
62535;SDS011;63050;47.514;18.920;2022-11-20T07:49:52;17.40;;;11.30;;
62535;SDS011;63050;47.514;18.920;2022-11-20T07:54:52;19.50;;;12.90;;
62535;SDS011;63050;47.514;18.920;2022-11-20T07:59:53;20.70;;;13.70;;
62535;SDS011;63050;47.514;18.920;2022-11-20T08:04:54;20.20;;;14.10;;
62535;SDS011;63050;47.514;18.920;2022-11-20T08:09:55;17.90;;;12.40;;
62535;SDS011;63050;47.514;18.920;2022-11-20T08:14:56;16.40;;;10.80;;
62535;SDS011;63050;47.514;18.920;2022-11-20T08:19:59;17.60;;;11.20;;
62535;SDS011;63050;47.514;18.920;2022-11-20T08:25:00;19.10;;;12.60;;
62535;SDS011;63050;47.514;18.920;2022-11-20T08:30:01;17.10;;;11.50;;
62535;SDS011;63050;47.514;18.920;2022-11-20T08:35:02;18.30;;;11.50;;
62535;SDS011;63050;47.514;18.920;2022-11-20T08:40:03;17.40;;;10.80;;
62535;SDS011;63050;47.514;18.920;2022-11-20T08:45:04;15.10;;;9.40;;
62535;SDS011;63050;47.514;18.920;2022-11-20T08:50:05;13.70;;;8.20;;
62535;SDS011;63050;47.514;18.920;2022-11-20T08:55:07;13.10;;;8.60;;
62535;SDS011;63050;47.514;18.920;2022-11-20T09:00:09;12.00;;;7.60;;
62535;SDS011;63050;47.514;18.920;2022-11-20T09:05:11;11.70;;;7.40;;
62535;SDS011;63050;47.514;18.920;2022-11-20T09:10:11;12.60;;;8.90;;
62535;SDS011;63050;47.514;18.920;2022-11-20T09:15:12;13.50;;;8.20;;
62535;SDS011;63050;47.514;18.920;2022-11-20T09:20:13;18.00;;;12.70;;
62535;SDS011;63050;47.514;18.920;2022-11-20T09:25:14;20.10;;;12.90;;
62535;SDS011;63050;47.514;18.920;2022-11-20T09:30:15;16.80;;;11.40;;
62535;SDS011;63050;47.514;18.920;2022-11-20T09:35:16;18.30;;;11.90;;
62535;SDS011;63050;47.514;18.920;2022-11-20T09:40:22;17.40;;;11.90;;
62535;SDS011;63050;47.514;18.920;2022-11-20T09:56:14;15.10;;;9.70;;
62535;SDS011;63050;47.514;18.920;2022-11-20T10:01:19;14.30;;;9.40;;
62535;SDS011;63050;47.514;18.920;2022-11-20T10:06:24;15.80;;;9.40;;
62535;SDS011;63050;47.514;18.920;2022-11-20T10:22:15;16.40;;;11.30;;
62535;SDS011;63050;47.514;18.920;2022-11-20T10:27:39;15.40;;;9.90;;
62535;SDS011;63050;47.514;18.920;2022-11-20T10:32:59;16.20;;;10.40;;
62535;SDS011;63050;47.514;18.920;2022-11-20T10:38:09;16.40;;;10.50;;
62535;SDS011;63050;47.514;18.920;2022-11-20T10:43:15;15.80;;;9.70;;
62535;SDS011;63050;47.514;18.920;2022-11-20T10:48:22;12.20;;;8.60;;
62535;SDS011;63050;47.514;18.920;2022-11-20T11:04:06;16.40;;;10.80;;
62535;SDS011;63050;47.514;18.920;2022-11-20T11:09:22;17.00;;;12.20;;
62535;SDS011;63050;47.514;18.920;2022-11-20T11:14:30;16.60;;;11.20;;
62535;SDS011;63050;47.514;18.920;2022-11-20T11:19:42;16.20;;;11.70;;
62535;SDS011;63050;47.514;18.920;2022-11-20T11:24:51;18.90;;;12.00;;
62535;SDS011;63050;47.514;18.920;2022-11-20T11:30:01;19.80;;;12.90;;
62535;SDS011;63050;47.514;18.920;2022-11-20T11:35:05;21.90;;;13.60;;
62535;SDS011;63050;47.514;18.920;2022-11-20T12:19:21;5.90;;;5.30;;
62535;SDS011;63050;47.514;18.920;2022-11-20T13:08:54;23.20;;;13.40;;
62535;SDS011;63050;47.514;18.920;2022-11-20T13:14:11;17.20;;;13.00;;
62535;SDS011;63050;47.514;18.920;2022-11-20T13:19:21;18.90;;;13.40;;
62535;SDS011;63050;47.514;18.920;2022-11-20T13:24:24;19.90;;;13.80;;
62535;SDS011;63050;47.514;18.920;2022-11-20T13:29:27;19.60;;;13.70;;
62535;SDS011;63050;47.514;18.920;2022-11-20T13:34:28;19.60;;;14.80;;
62535;SDS011;63050;47.514;18.920;2022-11-20T13:39:35;21.10;;;14.60;;
62535;SDS011;63050;47.514;18.920;2022-11-20T13:49:43;20.90;;;14.30;;
62535;SDS011;63050;47.514;18.920;2022-11-20T14:05:20;20.80;;;14.40;;
62535;SDS011;63050;47.514;18.920;2022-11-20T14:10:24;18.60;;;13.40;;
62535;SDS011;63050;47.514;18.920;2022-11-20T14:15:31;21.60;;;13.80;;
62535;SDS011;63050;47.514;18.920;2022-11-20T14:20:33;20.20;;;13.90;;
62535;SDS011;63050;47.514;18.920;2022-11-20T14:25:34;31.30;;;22.90;;
62535;SDS011;63050;47.514;18.920;2022-11-20T14:30:42;24.20;;;16.20;;
62535;SDS011;63050;47.514;18.920;2022-11-20T14:35:48;20.40;;;14.70;;
62535;SDS011;63050;47.514;18.920;2022-11-20T14:40:50;25.90;;;16.60;;
62535;SDS011;63050;47.514;18.920;2022-11-20T14:45:59;29.80;;;22.80;;
62535;SDS011;63050;47.514;18.920;2022-11-20T14:51:00;20.90;;;14.40;;
62535;SDS011;63050;47.514;18.920;2022-11-20T14:56:03;18.90;;;13.30;;
62535;SDS011;63050;47.514;18.920;2022-11-20T15:01:05;29.30;;;19.00;;
62535;SDS011;63050;47.514;18.920;2022-11-20T15:06:07;30.10;;;18.40;;
62535;SDS011;63050;47.514;18.920;2022-11-20T15:11:18;28.50;;;18.80;;
62535;SDS011;63050;47.514;18.920;2022-11-20T15:16:21;27.10;;;18.40;;
62535;SDS011;63050;47.514;18.920;2022-11-20T15:21:24;27.70;;;19.00;;
62535;SDS011;63050;47.514;18.920;2022-11-20T15:26:25;25.70;;;17.20;;
62535;SDS011;63050;47.514;18.920;2022-11-20T15:31:27;27.90;;;19.20;;
62535;SDS011;63050;47.514;18.920;2022-11-20T15:36:27;24.30;;;17.00;;
62535;SDS011;63050;47.514;18.920;2022-11-20T15:41:30;24.60;;;16.70;;
62535;SDS011;63050;47.514;18.920;2022-11-20T15:46:31;23.70;;;16.50;;
62535;SDS011;63050;47.514;18.920;2022-11-20T15:51:38;21.00;;;13.50;;
62535;SDS011;63050;47.514;18.920;2022-11-20T15:56:40;18.40;;;12.60;;
62535;SDS011;63050;47.514;18.920;2022-11-20T16:01:41;24.00;;;16.00;;
62535;SDS011;63050;47.514;18.920;2022-11-20T16:06:42;22.40;;;15.70;;
62535;SDS011;63050;47.514;18.920;2022-11-20T16:11:43;19.00;;;13.70;;
62535;SDS011;63050;47.514;18.920;2022-11-20T16:16:44;19.30;;;12.60;;
62535;SDS011;63050;47.514;18.920;2022-11-20T16:21:45;27.20;;;19.50;;
62535;SDS011;63050;47.514;18.920;2022-11-20T16:26:46;24.60;;;18.10;;
62535;SDS011;63050;47.514;18.920;2022-11-20T16:31:47;24.80;;;17.30;;
62535;SDS011;63050;47.514;18.920;2022-11-20T16:36:48;19.40;;;13.60;;
62535;SDS011;63050;47.514;18.920;2022-11-20T16:41:49;21.80;;;14.00;;
62535;SDS011;63050;47.514;18.920;2022-11-20T16:46:51;22.70;;;13.80;;
62535;SDS011;63050;47.514;18.920;2022-11-20T16:51:52;32.40;;;17.60;;
62535;SDS011;63050;47.514;18.920;2022-11-20T16:56:52;33.30;;;21.00;;
62535;SDS011;63050;47.514;18.920;2022-11-20T17:01:53;28.50;;;19.90;;
62535;SDS011;63050;47.514;18.920;2022-11-20T17:06:54;30.20;;;21.10;;
62535;SDS011;63050;47.514;18.920;2022-11-20T17:11:54;32.70;;;21.90;;
62535;SDS011;63050;47.514;18.920;2022-11-20T17:16:55;27.40;;;19.40;;
62535;SDS011;63050;47.514;18.920;2022-11-20T17:21:57;22.40;;;14.30;;
62535;SDS011;63050;47.514;18.920;2022-11-20T17:26:58;26.60;;;18.70;;
62535;SDS011;63050;47.514;18.920;2022-11-20T17:31:58;28.00;;;18.80;;
62535;SDS011;63050;47.514;18.920;2022-11-20T17:36:59;21.70;;;15.90;;
62535;SDS011;63050;47.514;18.920;2022-11-20T17:42:00;10.00;;;7.40;;
62535;SDS011;63050;47.514;18.920;2022-11-20T17:47:20;19.50;;;14.50;;
62535;SDS011;63050;47.514;18.920;2022-11-20T17:52:20;10.20;;;7.50;;
62535;SDS011;63050;47.514;18.920;2022-11-20T17:57:22;6.30;;;4.00;;
62535;SDS011;63050;47.514;18.920;2022-11-20T18:02:42;7.80;;;4.30;;
62535;SDS011;63050;47.514;18.920;2022-11-20T18:07:43;6.90;;;4.60;;
62535;SDS011;63050;47.514;18.920;2022-11-20T18:12:43;19.80;;;14.60;;
62535;SDS011;63050;47.514;18.920;2022-11-20T18:17:44;30.30;;;20.50;;
62535;SDS011;63050;47.514;18.920;2022-11-20T18:22:45;19.20;;;13.80;;
62535;SDS011;63050;47.514;18.920;2022-11-20T18:27:46;13.40;;;10.00;;
62535;SDS011;63050;47.514;18.920;2022-11-20T18:32:47;14.90;;;10.50;;
62535;SDS011;63050;47.514;18.920;2022-11-20T18:37:49;17.50;;;12.20;;
62535;SDS011;63050;47.514;18.920;2022-11-20T18:42:50;18.80;;;12.80;;
62535;SDS011;63050;47.514;18.920;2022-11-20T18:48:11;16.50;;;11.90;;
62535;SDS011;63050;47.514;18.920;2022-11-20T18:53:11;21.90;;;14.20;;
62535;SDS011;63050;47.514;18.920;2022-11-20T18:58:12;27.10;;;17.30;;
62535;SDS011;63050;47.514;18.920;2022-11-20T19:03:13;16.30;;;10.80;;
62535;SDS011;63050;47.514;18.920;2022-11-20T19:08:14;15.60;;;10.00;;
62535;SDS011;63050;47.514;18.920;2022-11-20T19:13:15;15.90;;;10.30;;
62535;SDS011;63050;47.514;18.920;2022-11-20T19:18:16;13.60;;;9.10;;
62535;SDS011;63050;47.514;18.920;2022-11-20T19:23:16;13.40;;;8.10;;
62535;SDS011;63050;47.514;18.920;2022-11-20T19:28:21;11.10;;;5.70;;
62535;SDS011;63050;47.514;18.920;2022-11-20T19:33:21;7.00;;;4.60;;
62535;SDS011;63050;47.514;18.920;2022-11-20T19:38:23;9.00;;;6.00;;
62535;SDS011;63050;47.514;18.920;2022-11-20T19:43:24;9.90;;;6.30;;
62535;SDS011;63050;47.514;18.920;2022-11-20T19:48:25;8.20;;;5.30;;
62535;SDS011;63050;47.514;18.920;2022-11-20T19:53:29;6.10;;;3.80;;
62535;SDS011;63050;47.514;18.920;2022-11-20T19:58:30;4.50;;;2.90;;
62535;SDS011;63050;47.514;18.920;2022-11-20T20:03:31;8.00;;;3.20;;
62535;SDS011;63050;47.514;18.920;2022-11-20T20:08:32;9.10;;;3.90;;
62535;SDS011;63050;47.514;18.920;2022-11-20T20:13:33;6.70;;;5.20;;
62535;SDS011;63050;47.514;18.920;2022-11-20T20:18:34;6.80;;;4.50;;
62535;SDS011;63050;47.514;18.920;2022-11-20T20:23:35;7.20;;;4.20;;
62535;SDS011;63050;47.514;18.920;2022-11-20T20:28:36;8.50;;;4.80;;
62535;SDS011;63050;47.514;18.920;2022-11-20T20:33:40;6.30;;;4.90;;
62535;SDS011;63050;47.514;18.920;2022-11-20T20:38:41;7.20;;;4.90;;
62535;SDS011;63050;47.514;18.920;2022-11-20T20:43:43;6.30;;;4.90;;
62535;SDS011;63050;47.514;18.920;2022-11-20T20:49:03;8.10;;;5.50;;
62535;SDS011;63050;47.514;18.920;2022-11-20T20:54:04;9.60;;;5.70;;
62535;SDS011;63050;47.514;18.920;2022-11-20T20:59:05;14.20;;;8.30;;
62535;SDS011;63050;47.514;18.920;2022-11-20T21:04:06;11.30;;;7.40;;
62535;SDS011;63050;47.514;18.920;2022-11-20T21:09:07;10.60;;;7.60;;
62535;SDS011;63050;47.514;18.920;2022-11-20T21:14:08;9.40;;;5.60;;
62535;SDS011;63050;47.514;18.920;2022-11-20T21:19:09;8.80;;;4.70;;
62535;SDS011;63050;47.514;18.920;2022-11-20T21:24:10;8.70;;;5.10;;
62535;SDS011;63050;47.514;18.920;2022-11-20T21:29:11;9.50;;;5.60;;
62535;SDS011;63050;47.514;18.920;2022-11-20T21:34:12;7.10;;;4.80;;
62535;SDS011;63050;47.514;18.920;2022-11-20T21:39:15;6.20;;;4.20;;
62535;SDS011;63050;47.514;18.920;2022-11-20T21:44:16;6.10;;;3.50;;
62535;SDS011;63050;47.514;18.920;2022-11-20T21:49:16;5.70;;;3.60;;
62535;SDS011;63050;47.514;18.920;2022-11-20T21:54:17;6.70;;;3.60;;
62535;SDS011;63050;47.514;18.920;2022-11-20T21:59:18;6.60;;;4.00;;
62535;SDS011;63050;47.514;18.920;2022-11-20T22:04:19;7.70;;;3.90;;
62535;SDS011;63050;47.514;18.920;2022-11-20T22:09:21;7.70;;;4.20;;
62535;SDS011;63050;47.514;18.920;2022-11-20T22:14:23;7.00;;;4.50;;
62535;SDS011;63050;47.514;18.920;2022-11-20T22:19:24;7.10;;;3.70;;
62535;SDS011;63050;47.514;18.920;2022-11-20T22:24:25;7.60;;;4.00;;
62535;SDS011;63050;47.514;18.920;2022-11-20T22:29:26;6.20;;;4.00;;
62535;SDS011;63050;47.514;18.920;2022-11-20T22:34:27;7.00;;;4.20;;
62535;SDS011;63050;47.514;18.920;2022-11-20T22:39:28;10.80;;;4.50;;
62535;SDS011;63050;47.514;18.920;2022-11-20T22:44:29;9.50;;;5.80;;
62535;SDS011;63050;47.514;18.920;2022-11-20T22:49:30;13.60;;;6.60;;
62535;SDS011;63050;47.514;18.920;2022-11-20T22:54:31;13.30;;;6.60;;
62535;SDS011;63050;47.514;18.920;2022-11-20T22:59:32;9.80;;;5.40;;
62535;SDS011;63050;47.514;18.920;2022-11-20T23:04:33;8.70;;;4.80;;
62535;SDS011;63050;47.514;18.920;2022-11-20T23:09:34;10.70;;;4.60;;
62535;SDS011;63050;47.514;18.920;2022-11-20T23:14:35;8.30;;;4.90;;
62535;SDS011;63050;47.514;18.920;2022-11-20T23:19:35;10.10;;;5.70;;
62535;SDS011;63050;47.514;18.920;2022-11-20T23:24:36;9.50;;;6.10;;
62535;SDS011;63050;47.514;18.920;2022-11-20T23:29:37;9.80;;;6.10;;
62535;SDS011;63050;47.514;18.920;2022-11-20T23:34:37;8.90;;;5.30;;
62535;SDS011;63050;47.514;18.920;2022-11-20T23:39:38;9.60;;;5.90;;
62535;SDS011;63050;47.514;18.920;2022-11-20T23:44:39;9.70;;;5.70;;
62535;SDS011;63050;47.514;18.920;2022-11-20T23:49:40;8.80;;;5.20;;
62535;SDS011;63050;47.514;18.920;2022-11-20T23:54:40;8.30;;;5.50;;
62535;SDS011;63050;47.514;18.920;2022-11-20T23:59:41;9.50;;;5.70;;
